createdAt,value
2024-03-12T00:01:09.847Z,8.97
2024-03-12T00:03:44.256Z,8.97
2024-03-12T00:06:12.082Z,8.96
2024-03-12T00:08:40.787Z,8.98
2024-03-12T00:11:09.063Z,8.94
2024-03-12T00:13:36.336Z,8.89
2024-03-12T00:16:04.494Z,8.89
2024-03-12T00:18:34.226Z,8.89
2024-03-12T00:21:04.590Z,8.89
2024-03-12T00:23:31.611Z,8.93
2024-03-12T00:25:58.586Z,8.91
2024-03-12T00:28:25.629Z,8.88
2024-03-12T00:30:55.460Z,8.88
2024-03-12T00:33:23.476Z,8.86
2024-03-12T00:35:50.502Z,8.85
2024-03-12T00:38:19.220Z,8.82
2024-03-12T00:40:48.150Z,8.82
2024-03-12T00:43:15.462Z,8.81
2024-03-12T00:45:42.891Z,8.78
2024-03-12T00:48:16.769Z,8.80
2024-03-12T00:50:46.532Z,8.76
2024-03-12T00:53:14.412Z,8.80
2024-03-12T00:55:42.204Z,8.81
2024-03-12T00:58:13.622Z,8.81
2024-03-12T01:00:42.248Z,8.79
2024-03-12T01:03:10.362Z,8.83
2024-03-12T01:05:39.076Z,8.82
2024-03-12T01:08:07.174Z,8.82
2024-03-12T01:10:35.757Z,8.84
2024-03-12T01:13:10.417Z,8.83
2024-03-12T01:15:38.329Z,8.79
2024-03-12T01:18:08.223Z,8.77
2024-03-12T01:20:36.225Z,8.80
2024-03-12T01:23:06.449Z,8.76
2024-03-12T01:25:36.565Z,8.77
2024-03-12T01:28:06.385Z,8.81
2024-03-12T01:30:34.959Z,8.73
2024-03-12T01:33:03.771Z,8.71
2024-03-12T01:35:31.676Z,8.69
2024-03-12T01:37:59.403Z,8.74
2024-03-12T01:40:28.639Z,8.73
2024-03-12T01:43:05.141Z,8.64
2024-03-12T01:45:34.636Z,8.73
2024-03-12T01:48:12.194Z,8.70
2024-03-12T01:50:40.644Z,8.78
2024-03-12T01:53:08.821Z,8.69
2024-03-12T01:55:43.401Z,8.76
2024-03-12T01:58:13.839Z,8.70
2024-03-12T02:00:40.926Z,8.65
2024-03-12T02:03:08.147Z,8.68
2024-03-12T02:05:35.259Z,8.64
2024-03-12T02:08:02.930Z,8.68
2024-03-12T02:10:29.936Z,8.65
2024-03-12T02:12:57.958Z,8.68
2024-03-12T02:15:25.203Z,8.63
2024-03-12T02:17:55.595Z,8.63
2024-03-12T02:20:23.661Z,8.61
2024-03-12T02:22:56.468Z,8.60
2024-03-12T02:25:24.703Z,8.53
2024-03-12T02:27:53.272Z,8.62
2024-03-12T02:30:21.019Z,8.53
2024-03-12T02:32:48.618Z,8.61
2024-03-12T02:35:16.743Z,8.57
2024-03-12T02:37:44.331Z,8.58
2024-03-12T02:40:14.892Z,8.56
2024-03-12T02:42:43.452Z,8.59
2024-03-12T02:45:18.250Z,8.51
2024-03-12T02:47:47.209Z,8.52
2024-03-12T02:50:15.307Z,8.50
2024-03-12T02:52:43.424Z,8.49
2024-03-12T02:55:11.208Z,8.49
2024-03-12T02:57:38.537Z,8.49
2024-03-12T03:00:14.242Z,8.47
2024-03-12T03:02:43.419Z,8.48
2024-03-12T03:05:11.249Z,8.49
2024-03-12T03:07:39.023Z,8.46
2024-03-12T03:10:07.414Z,8.47
2024-03-12T03:12:34.463Z,8.47
2024-03-12T03:15:01.438Z,8.48
2024-03-12T03:17:28.412Z,8.50
2024-03-12T03:19:55.405Z,8.54
2024-03-12T03:22:22.434Z,8.45
2024-03-12T03:24:49.499Z,8.47
2024-03-12T03:27:16.515Z,8.46
2024-03-12T03:29:44.045Z,8.47
2024-03-12T03:32:11.052Z,8.45
2024-03-12T03:34:38.637Z,8.45
2024-03-12T03:37:05.967Z,8.46
2024-03-12T03:39:36.956Z,8.45
2024-03-12T03:42:04.154Z,8.46
2024-03-12T03:44:31.145Z,8.41
2024-03-12T03:46:58.098Z,8.41
2024-03-12T03:49:25.099Z,8.41
2024-03-12T03:51:53.519Z,8.39
2024-03-12T03:54:20.674Z,8.39
2024-03-12T03:56:48.755Z,8.40
2024-03-12T03:59:17.757Z,8.41
2024-03-12T04:01:45.039Z,8.41
2024-03-12T04:04:15.447Z,8.40
2024-03-12T04:06:46.021Z,8.36
2024-03-12T04:09:13.100Z,8.35
2024-03-12T04:11:40.305Z,8.41
2024-03-12T04:14:08.982Z,8.35
2024-03-12T04:16:36.069Z,8.39
2024-03-12T04:19:03.225Z,8.38
2024-03-12T04:21:30.474Z,8.40
2024-03-12T04:23:57.468Z,8.40
2024-03-12T04:26:24.509Z,8.42
2024-03-12T04:28:51.482Z,8.41
2024-03-12T04:31:22.059Z,8.39
2024-03-12T04:33:53.998Z,8.38
2024-03-12T04:36:24.739Z,8.36
2024-03-12T04:38:52.082Z,8.32
2024-03-12T04:41:21.847Z,8.32
2024-03-12T04:43:52.294Z,8.33
2024-03-12T04:46:19.607Z,8.32
2024-03-12T04:48:47.787Z,8.35
2024-03-12T04:51:15.604Z,8.35
2024-03-12T04:53:44.710Z,8.32
2024-03-12T04:56:12.754Z,8.38
2024-03-12T04:58:40.104Z,8.40
2024-03-12T05:01:07.522Z,8.39
2024-03-12T05:03:35.674Z,8.37
2024-03-12T05:06:02.944Z,8.39
2024-03-12T05:08:29.965Z,8.39
2024-03-12T05:10:58.833Z,8.37
2024-03-12T05:13:27.216Z,8.37
2024-03-12T05:15:54.199Z,8.41
2024-03-12T05:18:21.384Z,8.42
2024-03-12T05:20:48.395Z,8.40
2024-03-12T05:23:16.086Z,8.41
2024-03-12T05:25:45.335Z,8.42
2024-03-12T05:28:13.454Z,8.41
2024-03-12T05:30:42.307Z,8.41
2024-03-12T05:33:16.723Z,8.41
2024-03-12T05:35:52.516Z,8.40
2024-03-12T05:38:31.781Z,8.41
2024-03-12T05:41:15.900Z,8.42
2024-03-12T05:44:01.656Z,8.41
2024-03-12T05:46:48.379Z,8.40
2024-03-12T05:49:15.775Z,8.36
2024-03-12T05:51:43.368Z,8.38
2024-03-12T05:54:10.880Z,8.39
2024-03-12T05:56:38.990Z,8.36
2024-03-12T05:59:06.242Z,8.39
2024-03-12T06:01:33.662Z,8.37
2024-03-12T06:04:00.962Z,8.38
2024-03-12T06:06:28.105Z,8.39
2024-03-12T06:08:55.579Z,8.35
2024-03-12T06:11:23.865Z,8.36
2024-03-12T06:13:50.833Z,8.37
2024-03-12T06:16:19.681Z,8.36
2024-03-12T06:18:46.996Z,8.36
2024-03-12T06:21:14.209Z,8.35
2024-03-12T06:23:41.870Z,8.39
2024-03-12T06:26:08.960Z,8.36
2024-03-12T06:28:37.034Z,8.35
2024-03-12T06:31:05.323Z,8.36
2024-03-12T06:33:32.860Z,8.33
2024-03-12T06:35:59.895Z,8.35
2024-03-12T06:38:26.917Z,8.33
2024-03-12T06:40:54.195Z,8.33
2024-03-12T06:43:22.437Z,8.31
2024-03-12T06:45:53.764Z,9.23
2024-03-12T06:48:21.435Z,10.94
2024-03-12T06:50:48.593Z,11.83
2024-03-12T06:53:16.640Z,12.42
2024-03-12T06:55:45.307Z,12.83
2024-03-12T06:58:13.355Z,13.12
2024-03-12T07:00:45.843Z,13.40
2024-03-12T07:03:15.620Z,13.51
2024-03-12T07:05:48.448Z,13.63
2024-03-12T07:08:18.990Z,13.69
2024-03-12T07:10:46.895Z,13.76
2024-03-12T07:13:14.792Z,13.86
2024-03-12T07:15:46.320Z,13.90
2024-03-12T07:18:15.472Z,13.96
2024-03-12T07:20:42.817Z,14.04
2024-03-12T07:23:10.044Z,14.11
2024-03-12T07:25:37.187Z,14.16
2024-03-12T07:28:08.864Z,14.23
2024-03-12T07:30:37.221Z,14.29
2024-03-12T07:33:05.592Z,14.34
2024-03-12T07:35:36.924Z,14.38
2024-03-12T07:38:05.048Z,14.44
2024-03-12T07:40:35.401Z,14.49
2024-03-12T07:43:05.516Z,14.50
2024-03-12T07:45:32.908Z,14.53
2024-03-12T07:48:00.454Z,14.58
2024-03-12T07:50:32.125Z,14.60
2024-03-12T07:52:59.222Z,14.61
2024-03-12T07:55:26.392Z,14.65
2024-03-12T07:57:53.632Z,14.69
2024-03-12T08:00:20.954Z,14.71
2024-03-12T08:02:48.192Z,14.73
2024-03-12T08:05:15.490Z,14.76
2024-03-12T08:07:46.173Z,14.78
2024-03-12T08:10:14.060Z,14.78
2024-03-12T08:12:41.712Z,14.81
2024-03-12T08:15:14.455Z,14.83
2024-03-12T08:17:42.466Z,14.84
2024-03-12T08:20:14.675Z,14.83
2024-03-12T08:22:41.839Z,14.85
2024-03-12T08:25:12.173Z,14.89
2024-03-12T08:27:41.831Z,14.89
2024-03-12T08:30:09.890Z,14.87
2024-03-12T08:32:37.679Z,10.46
2024-03-12T08:35:06.333Z,9.74
2024-03-12T08:37:36.862Z,9.71
2024-03-12T08:40:08.804Z,9.67
2024-03-12T08:42:44.463Z,9.55
2024-03-12T08:45:18.565Z,9.54
2024-03-12T08:47:48.650Z,9.58
2024-03-12T08:50:17.026Z,9.53
2024-03-12T08:52:44.169Z,9.58
2024-03-12T08:55:11.345Z,9.51
2024-03-12T08:57:38.534Z,9.54
2024-03-12T09:00:12.353Z,9.55
2024-03-12T09:02:43.167Z,9.50
2024-03-12T09:05:10.707Z,9.54
2024-03-12T09:07:38.438Z,9.48
2024-03-12T09:10:12.894Z,9.52
2024-03-12T09:12:42.160Z,9.55
2024-03-12T09:15:10.447Z,9.59
2024-03-12T09:17:41.362Z,9.54
2024-03-12T09:20:12.238Z,9.50
2024-03-12T09:22:40.687Z,9.55
2024-03-12T09:25:09.623Z,9.57
2024-03-12T09:27:36.940Z,9.54
2024-03-12T09:30:08.257Z,9.53
2024-03-12T09:32:35.418Z,9.47
2024-03-12T09:35:04.051Z,9.53
2024-03-12T09:37:32.188Z,9.51
2024-03-12T09:40:04.829Z,9.47
2024-03-12T09:42:33.890Z,9.48
2024-03-12T09:45:01.390Z,9.48
2024-03-12T09:47:28.664Z,9.54
2024-03-12T09:49:57.030Z,9.52
2024-03-12T09:52:27.040Z,9.52
2024-03-12T09:54:54.531Z,9.50
2024-03-12T09:57:24.082Z,9.50
2024-03-12T09:59:53.217Z,9.54
2024-03-12T10:02:21.736Z,9.57
2024-03-12T10:04:51.860Z,9.70
2024-03-12T10:07:19.011Z,9.79
2024-03-12T10:09:47.263Z,9.80
2024-03-12T10:12:20.245Z,9.83
2024-03-12T10:14:47.278Z,9.83
2024-03-12T10:17:16.646Z,9.84
2024-03-12T10:19:50.354Z,9.95
2024-03-12T10:22:27.816Z,9.94
2024-03-12T10:25:07.398Z,10.04
2024-03-12T10:27:34.594Z,10.12
2024-03-12T10:30:01.748Z,10.12
2024-03-12T10:32:33.288Z,10.17
2024-03-12T10:35:00.342Z,10.26
2024-03-12T10:37:30.816Z,10.37
2024-03-12T10:40:20.320Z,10.38
2024-03-12T10:43:04.684Z,10.47
2024-03-12T10:45:32.634Z,10.56
2024-03-12T10:48:01.400Z,10.56
2024-03-12T10:50:28.464Z,10.52
2024-03-12T10:52:56.435Z,10.70
2024-03-12T10:55:23.985Z,10.71
2024-03-12T10:57:56.083Z,10.76
2024-03-12T11:00:27.128Z,10.97
2024-03-12T11:02:55.488Z,11.10
2024-03-12T11:05:31.212Z,11.08
2024-03-12T11:07:59.936Z,11.07
2024-03-12T11:10:34.121Z,11.13
2024-03-12T11:13:02.307Z,11.24
2024-03-12T11:15:30.067Z,11.17
2024-03-12T11:17:57.383Z,11.35
2024-03-12T11:20:28.028Z,11.39
2024-03-12T11:23:01.317Z,11.46
2024-03-12T11:25:51.243Z,11.57
2024-03-12T11:28:22.502Z,11.59
2024-03-12T11:31:10.067Z,11.70
2024-03-12T11:33:40.183Z,11.70
2024-03-12T11:36:10.900Z,11.70
2024-03-12T11:38:40.141Z,11.74
2024-03-12T11:41:08.149Z,11.73
2024-03-12T11:43:40.425Z,11.66
2024-03-12T11:46:16.697Z,11.77
2024-03-12T11:48:46.343Z,11.87
2024-03-12T11:51:14.905Z,11.91
2024-03-12T11:53:45.278Z,11.97
2024-03-12T11:56:17.843Z,12.19
2024-03-12T11:58:57.629Z,12.17
2024-03-12T12:01:33.548Z,12.13
2024-03-12T12:04:10.929Z,12.21
2024-03-12T12:06:38.214Z,12.35
2024-03-12T12:09:10.267Z,12.35
2024-03-12T12:11:39.490Z,12.32
2024-03-12T12:14:09.921Z,12.31
2024-03-12T12:16:37.946Z,12.36
2024-03-12T12:19:14.023Z,12.42
2024-03-12T12:21:46.437Z,12.48
2024-03-12T12:24:14.813Z,12.62
2024-03-12T12:26:45.723Z,12.66
2024-03-12T12:29:15.274Z,12.63
2024-03-12T12:31:43.302Z,12.75
2024-03-12T12:34:11.999Z,12.69
2024-03-12T12:36:44.508Z,12.62
2024-03-12T12:39:13.460Z,12.64
2024-03-12T12:41:45.340Z,12.63
2024-03-12T12:44:23.085Z,12.59
2024-03-12T12:46:53.637Z,12.62
2024-03-12T12:49:22.555Z,12.56
2024-03-12T12:51:51.368Z,12.51
2024-03-12T12:54:23.021Z,12.56
2024-03-12T12:56:51.752Z,12.62
2024-03-12T12:59:24.486Z,12.57
2024-03-12T13:01:52.001Z,12.59
2024-03-12T13:04:29.010Z,12.71
2024-03-12T13:06:58.364Z,12.75
2024-03-12T13:09:42.442Z,12.86
2024-03-12T13:12:10.571Z,12.98
2024-03-12T13:14:43.115Z,13.04
2024-03-12T13:17:11.172Z,13.03
2024-03-12T13:19:38.461Z,13.02
2024-03-12T13:22:13.167Z,12.98
2024-03-12T13:24:45.108Z,13.02
2024-03-12T13:27:13.579Z,12.88
2024-03-12T13:29:43.837Z,12.94
2024-03-12T13:32:11.549Z,12.85
2024-03-12T13:34:38.602Z,12.89
2024-03-12T13:37:08.414Z,12.88
2024-03-12T13:39:35.734Z,12.86
2024-03-12T13:42:06.428Z,12.81
2024-03-12T13:44:33.602Z,12.73
2024-03-12T13:47:01.338Z,12.66
2024-03-12T13:49:28.984Z,12.62
2024-03-12T13:51:56.414Z,12.63
2024-03-12T13:54:23.552Z,12.71
2024-03-12T13:56:50.539Z,12.70
2024-03-12T13:59:18.810Z,12.66
2024-03-12T14:01:48.538Z,12.63
2024-03-12T14:04:16.030Z,12.62
2024-03-12T14:06:43.212Z,12.67
2024-03-12T14:09:13.648Z,12.64
2024-03-12T14:11:41.067Z,12.59
2024-03-12T14:14:11.236Z,12.59
2024-03-12T14:16:38.449Z,12.61
2024-03-12T14:19:05.682Z,12.56
2024-03-12T14:21:34.113Z,12.54
2024-03-12T14:24:03.814Z,12.51
2024-03-12T14:26:31.221Z,12.52
2024-03-12T14:28:59.222Z,12.50
2024-03-12T14:31:26.383Z,12.47
2024-03-12T14:33:53.927Z,12.38
2024-03-12T14:36:21.153Z,12.32
2024-03-12T14:38:50.867Z,12.29
2024-03-12T14:41:21.645Z,12.25
2024-03-12T14:43:48.799Z,12.19
2024-03-12T14:46:16.687Z,12.19
2024-03-12T14:48:43.881Z,12.10
2024-03-12T14:51:11.890Z,12.03
2024-03-12T14:53:40.689Z,12.03
2024-03-12T14:56:07.863Z,12.08
2024-03-12T14:58:34.902Z,12.10
2024-03-12T15:01:02.143Z,12.03
2024-03-12T15:03:29.286Z,11.98
2024-03-12T15:05:56.812Z,11.98
2024-03-12T15:08:24.361Z,11.97
2024-03-12T15:10:51.579Z,11.94
2024-03-12T15:13:19.124Z,11.92
2024-03-12T15:15:47.215Z,11.93
2024-03-12T15:18:14.706Z,11.88
2024-03-12T15:20:43.033Z,11.85
2024-03-12T15:23:10.310Z,11.83
2024-03-12T15:25:37.643Z,11.75
2024-03-12T15:28:05.254Z,11.74
2024-03-12T15:30:34.578Z,11.73
2024-03-12T15:33:01.772Z,11.73
2024-03-12T15:35:29.019Z,11.75
2024-03-12T15:37:59.493Z,11.69
2024-03-12T15:40:26.547Z,11.71
2024-03-12T15:42:53.613Z,11.66
2024-03-12T15:45:21.929Z,11.63
2024-03-12T15:47:49.505Z,11.66
2024-03-12T15:50:17.483Z,11.63
2024-03-12T15:52:44.905Z,11.53
2024-03-12T15:55:13.566Z,11.49
2024-03-12T15:57:41.899Z,11.44
2024-03-12T16:00:14.742Z,11.43
2024-03-12T16:02:42.625Z,11.41
2024-03-12T16:05:09.940Z,11.35
2024-03-12T16:07:37.430Z,11.30
2024-03-12T16:10:05.545Z,11.31
2024-03-12T16:12:33.032Z,11.29
2024-03-12T16:15:00.080Z,11.26
2024-03-12T16:17:31.005Z,11.25
2024-03-12T16:19:58.219Z,11.22
2024-03-12T16:22:25.277Z,11.23
2024-03-12T16:24:52.457Z,11.31
2024-03-12T16:27:19.831Z,11.26
2024-03-12T16:29:48.223Z,11.35
2024-03-12T16:32:15.673Z,11.33
2024-03-12T16:34:43.098Z,11.26
2024-03-12T16:37:10.516Z,11.25
2024-03-12T16:39:39.876Z,11.26
2024-03-12T16:42:07.396Z,11.21
2024-03-12T16:44:34.455Z,11.27
2024-03-12T16:47:06.043Z,11.24
2024-03-12T16:49:34.407Z,11.18
2024-03-12T16:52:02.417Z,11.14
2024-03-12T16:54:32.029Z,11.12
2024-03-12T16:57:03.625Z,11.10
2024-03-12T16:59:34.715Z,11.09
2024-03-12T17:02:04.874Z,11.07
2024-03-12T17:04:32.879Z,11.02
2024-03-12T17:07:08.956Z,11.03
2024-03-12T17:09:40.607Z,11.02
2024-03-12T17:12:10.211Z,10.98
2024-03-12T17:14:37.390Z,10.97
2024-03-12T17:17:08.615Z,10.95
2024-03-12T17:19:38.243Z,10.96
2024-03-12T17:22:07.154Z,10.91
2024-03-12T17:24:35.644Z,10.92
2024-03-12T17:27:09.109Z,10.89
2024-03-12T17:29:38.125Z,10.83
2024-03-12T17:32:11.459Z,10.84
2024-03-12T17:34:39.950Z,10.81
2024-03-12T17:37:17.874Z,10.79
2024-03-12T17:39:47.908Z,10.80
2024-03-12T17:42:21.651Z,10.70
2024-03-12T17:44:49.691Z,10.77
2024-03-12T17:47:23.876Z,10.71
2024-03-12T17:49:54.562Z,10.70
2024-03-12T17:52:23.477Z,10.71
2024-03-12T17:54:51.279Z,10.68
2024-03-12T17:57:18.650Z,10.67
2024-03-12T17:59:46.027Z,10.69
2024-03-12T18:02:16.840Z,10.59
2024-03-12T18:04:44.416Z,10.60
2024-03-12T18:07:26.282Z,10.58
2024-03-12T18:09:58.027Z,10.59
2024-03-12T18:12:25.328Z,10.59
2024-03-12T18:14:52.360Z,10.59
2024-03-12T18:17:19.922Z,10.58
2024-03-12T18:19:47.427Z,10.57
2024-03-12T18:22:15.231Z,10.54
2024-03-12T18:24:42.603Z,10.54
2024-03-12T18:27:12.668Z,10.54
2024-03-12T18:29:45.934Z,10.56
2024-03-12T18:32:17.488Z,10.52
2024-03-12T18:34:46.728Z,10.51
2024-03-12T18:37:13.797Z,10.51
2024-03-12T18:39:42.764Z,10.48
2024-03-12T18:42:11.108Z,10.48
2024-03-12T18:44:38.324Z,10.51
2024-03-12T18:47:06.583Z,10.53
2024-03-12T18:49:35.039Z,10.51
2024-03-12T18:52:03.415Z,10.52
2024-03-12T18:54:31.332Z,10.48
2024-03-12T18:56:58.909Z,10.49
2024-03-12T18:59:26.448Z,10.56
2024-03-12T19:01:59.461Z,10.56
2024-03-12T19:04:33.611Z,10.57
2024-03-12T19:07:04.488Z,10.58
2024-03-12T19:09:32.539Z,10.57
2024-03-12T19:12:01.656Z,10.60
2024-03-12T19:14:30.998Z,10.56
2024-03-12T19:17:01.957Z,10.49
2024-03-12T19:19:30.629Z,10.50
2024-03-12T19:21:58.501Z,10.51
2024-03-12T19:24:26.197Z,10.51
2024-03-12T19:26:54.702Z,10.48
2024-03-12T19:29:22.549Z,10.47
2024-03-12T19:31:50.607Z,10.48
2024-03-12T19:34:18.937Z,10.48
2024-03-12T19:36:47.693Z,10.47
2024-03-12T19:39:15.308Z,10.47
2024-03-12T19:41:46.280Z,10.46
2024-03-12T19:44:13.973Z,10.47
2024-03-12T19:46:41.734Z,10.47
2024-03-12T19:49:14.763Z,10.47
2024-03-12T19:51:42.462Z,10.47
2024-03-12T19:54:09.779Z,10.49
2024-03-12T19:56:37.414Z,10.43
2024-03-12T19:59:06.051Z,10.44
2024-03-12T20:01:34.594Z,10.45
2024-03-12T20:04:02.379Z,10.45
2024-03-12T20:06:30.341Z,10.45
2024-03-12T20:09:01.185Z,10.43
2024-03-12T20:11:28.435Z,10.49
2024-03-12T20:13:56.309Z,10.46
2024-03-12T20:16:23.596Z,10.43
2024-03-12T20:18:50.691Z,10.44
2024-03-12T20:21:18.037Z,10.44
2024-03-12T20:23:45.214Z,10.44
2024-03-12T20:26:12.279Z,10.42
2024-03-12T20:28:42.287Z,10.43
2024-03-12T20:31:10.862Z,10.44
2024-03-12T20:33:39.767Z,10.44
2024-03-12T20:36:08.450Z,10.45
2024-03-12T20:38:35.476Z,10.45
2024-03-12T20:41:02.541Z,10.45
2024-03-12T20:43:29.630Z,10.43
2024-03-12T20:45:57.214Z,10.46
2024-03-12T20:48:24.700Z,10.45
2024-03-12T20:50:51.688Z,10.43
2024-03-12T20:53:22.478Z,10.46
2024-03-12T20:55:49.477Z,10.46
2024-03-12T20:58:16.469Z,10.48
2024-03-12T21:00:43.598Z,10.44
2024-03-12T21:03:10.959Z,10.46
2024-03-12T21:05:43.043Z,10.45
2024-03-12T21:08:10.949Z,10.48
2024-03-12T21:10:39.659Z,10.46
2024-03-12T21:13:06.735Z,10.46
2024-03-12T21:15:33.770Z,10.45
2024-03-12T21:18:01.608Z,10.48
2024-03-12T21:20:33.192Z,10.47
2024-03-12T21:23:00.352Z,10.48
2024-03-12T21:25:27.844Z,10.48
2024-03-12T21:27:54.990Z,10.49
2024-03-12T21:30:25.092Z,10.50
2024-03-12T21:32:53.754Z,10.50
2024-03-12T21:35:20.908Z,10.52
2024-03-12T21:37:47.840Z,10.53
2024-03-12T21:40:17.235Z,10.53
2024-03-12T21:42:44.859Z,10.53
2024-03-12T21:45:12.917Z,10.53
2024-03-12T21:47:41.302Z,10.53
2024-03-12T21:50:16.336Z,10.56
2024-03-12T21:52:44.036Z,10.56
2024-03-12T21:55:12.248Z,10.60
2024-03-12T21:57:40.956Z,10.59
2024-03-12T22:00:13.094Z,10.62
2024-03-12T22:02:40.405Z,10.61
2024-03-12T22:05:07.568Z,10.62
2024-03-12T22:07:38.218Z,10.64
2024-03-12T22:10:09.133Z,10.63
2024-03-12T22:12:36.425Z,10.64
2024-03-12T22:15:05.257Z,10.64
2024-03-12T22:17:32.412Z,10.64
2024-03-12T22:20:00.753Z,10.65
2024-03-12T22:22:29.639Z,10.67
2024-03-12T22:24:56.709Z,10.67
2024-03-12T22:27:23.926Z,10.67
2024-03-12T22:29:50.906Z,10.67
2024-03-12T22:32:22.061Z,10.70
2024-03-12T22:34:49.250Z,10.70
2024-03-12T22:37:16.403Z,10.71
2024-03-12T22:39:43.904Z,10.72
2024-03-12T22:42:11.648Z,10.77
2024-03-12T22:44:39.911Z,10.89
2024-03-12T22:47:09.185Z,10.90
2024-03-12T22:49:37.187Z,10.92
2024-03-12T22:52:08.942Z,10.97
2024-03-12T22:54:36.634Z,10.99
2024-03-12T22:57:04.925Z,11.03
2024-03-12T22:59:33.378Z,11.07
2024-03-12T23:02:04.165Z,11.08
2024-03-12T23:04:32.257Z,11.10
2024-03-12T23:06:59.753Z,11.15
2024-03-12T23:09:27.232Z,11.20
2024-03-12T23:11:57.325Z,11.26
2024-03-12T23:14:27.385Z,11.28
2024-03-12T23:16:54.617Z,11.32
2024-03-12T23:19:21.819Z,11.40
2024-03-12T23:21:48.981Z,11.44
2024-03-12T23:24:16.121Z,11.49
2024-03-12T23:26:43.753Z,11.47
2024-03-12T23:29:11.490Z,11.47
2024-03-12T23:31:38.781Z,11.46
2024-03-12T23:34:06.932Z,11.46
2024-03-12T23:36:34.396Z,11.49
2024-03-12T23:39:01.555Z,11.50
2024-03-12T23:41:31.022Z,11.49
2024-03-12T23:43:58.178Z,11.52
2024-03-12T23:46:25.878Z,11.57
2024-03-12T23:48:53.377Z,11.54
2024-03-12T23:51:20.492Z,11.53
2024-03-12T23:53:47.550Z,11.54
2024-03-12T23:56:14.666Z,11.53
2024-03-12T23:58:41.696Z,11.53
